Current Weather

Batten Intl

Racine, Wisconsin (KRAC)

Report from: Wednesday, September 28, 2022 4:53 AM CDT
Current time: Wednesday, September 28, 2022 5:11 AM CDT

Nearby weather
Weather history
Weather forecast

Temperature7.8°C (46.0°F)
Wind chill5.2°C (41.4°F)
Dew point3.3°C (37.9°F)
Winds 8 kts (4.1 m/s, 9.2 mph) North-Northwest (330°)
Visibility10 mi. (16.1 km)
Clouds Scattered clouds 7,500 ft. (2,286 m)
Ceiling: Broken clouds 11,000 ft. (3,353 m)
Altimeter30.38 in.Hg (1029 mB)
Relative humidity73 %
Density altitude-1,275 ft. (-389 m)
Sea-level pressure102.9 kPa (1029 mB, 30.38 in.Hg)
Remarks Fully automated report
Automated weather observing station with precipitation discriminator
Flight conditions Visual Meteorological Conditions
Raw dataKRAC 280953Z AUTO 33008KT 10SM SCT075 BKN110 08/03 A3038 RMK AO2 SLP289 T00780033
An error has occurred. This application may no longer respond until reloaded. Reload 🗙